Time;durP1;ratioP1;P1;durP2;ratioP2;P2;SDS_P1;SDS_P2;PMS_P1;PMS_P2;Temp;Humidity;BMP_temperature;BMP_pressure;BME280_temperature;BME280_humidity;BME280_pressure;Samples;Min_cycle;Max_cycle;Signal;HPM_P1;HPM_P2
2021/08/30 00:01:43;;;;;;;;;7.75;5.50;;;;;17.90;75.42;101670.56;5140277;27;45450;-70
2021/08/30 00:04:08;;;;;;;;;5.50;5.00;;;;;17.88;75.80;101664.50;5141340;27;46448;-70
2021/08/30 00:06:33;;;;;;;;;6.00;5.00;;;;;17.89;74.90;101668.00;5124423;27;45814;-70
2021/08/30 00:08:59;;;;;;;;;8.75;6.00;;;;;17.85;75.43;101664.66;5143035;27;45495;-71
2021/08/30 00:11:27;;;;;;;;;4.25;4.25;;;;;17.84;76.09;101652.44;5120404;27;45354;-71
2021/08/30 00:13:52;;;;;;;;;6.50;3.25;;;;;17.87;75.71;101667.22;5118561;27;48020;-71
2021/08/30 00:16:18;;;;;;;;;7.75;5.50;;;;;17.89;76.04;101665.38;5124475;27;45330;-70
2021/08/30 00:18:44;;;;;;;;;10.00;7.00;;;;;17.88;77.30;101674.19;5142578;27;45239;-75
2021/08/30 00:21:09;;;;;;;;;8.25;8.00;;;;;17.80;76.75;101669.22;5141946;27;45548;-72
2021/08/30 00:23:35;;;;;;;;;9.75;6.25;;;;;17.76;77.63;101662.41;5142961;27;46419;-72
2021/08/30 00:26:02;;;;;;;;;6.75;6.75;;;;;17.75;76.83;101663.31;5143068;27;45355;-72
2021/08/30 00:28:27;;;;;;;;;7.50;7.50;;;;;17.81;76.50;101668.31;5142301;27;45349;-72
2021/08/30 00:30:52;;;;;;;;;7.75;7.00;;;;;17.84;76.42;101662.09;5142770;27;45290;-72
2021/08/30 00:33:18;;;;;;;;;8.00;8.00;;;;;17.85;76.65;101664.66;5123482;27;46151;-72
2021/08/30 00:35:43;;;;;;;;;7.00;5.00;;;;;17.83;76.46;101661.25;5142604;27;45449;-71
2021/08/30 00:38:08;;;;;;;;;9.25;7.75;;;;;17.85;76.80;101656.75;5142972;27;45554;-71
2021/08/30 00:40:38;;;;;;;;;6.25;6.00;;;;;17.85;76.56;101659.41;5142555;27;45522;-71
2021/08/30 00:43:08;;;;;;;;;6.50;5.00;;;;;17.87;78.26;101662.81;5123888;27;47073;-71
2021/08/30 00:45:37;;;;;;;;;12.50;8.00;;;;;17.86;77.39;101661.09;5142947;27;45311;-71
2021/08/30 00:48:06;;;;;;;;;9.25;7.75;;;;;17.83;76.90;101649.88;5141322;27;45416;-71
2021/08/30 00:50:32;;;;;;;;;11.50;8.75;;;;;17.84;77.26;101655.06;5142832;27;45248;-71
2021/08/30 00:52:57;;;;;;;;;7.25;7.00;;;;;17.89;76.63;101650.44;5142889;27;45576;-71
2021/08/30 00:55:23;;;;;;;;;16.25;10.75;;;;;17.87;76.80;101651.44;5143043;27;45231;-71
2021/08/30 00:57:50;;;;;;;;;7.00;6.00;;;;;17.85;77.94;101656.75;5142805;27;45259;-72
2021/08/30 01:00:16;;;;;;;;;10.00;8.75;;;;;17.85;77.65;101656.75;5142911;27;45536;-72
2021/08/30 01:02:42;;;;;;;;;6.50;6.25;;;;;17.84;77.50;101649.78;5124131;27;47203;-73
2021/08/30 01:05:16;;;;;;;;;11.75;8.25;;;;;17.86;77.59;101653.22;5143063;27;45817;-72
2021/08/30 01:07:57;;;;;;;;;8.75;8.50;;;;;17.82;79.43;101659.53;5137442;27;45490;-72
2021/08/30 01:10:36;;;;;;;;;13.75;8.50;;;;;17.71;79.88;101651.22;5140093;27;45392;-72
2021/08/30 01:13:09;;;;;;;;;11.50;11.00;;;;;17.64;80.67;101641.88;5142576;27;45316;-72
2021/08/30 01:15:40;;;;;;;;;12.00;11.50;;;;;17.63;81.46;101651.53;5142465;27;45311;-71
2021/08/30 01:18:14;;;;;;;;;12.25;11.50;;;;;17.59;80.08;101635.94;5124081;27;45431;-73
2021/08/30 01:20:43;;;;;;;;;10.75;10.00;;;;;17.59;80.58;101649.06;5123557;27;45422;-73
2021/08/30 01:23:09;;;;;;;;;8.50;8.50;;;;;17.50;82.16;101639.81;5123084;27;47069;-74
2021/08/30 01:25:35;;;;;;;;;13.00;10.00;;;;;17.48;81.75;101641.66;5142218;27;45689;-74
2021/08/30 01:28:00;;;;;;;;;14.00;11.25;;;;;17.47;81.55;101639.09;5120997;27;45432;-74
2021/08/30 01:30:26;;;;;;;;;14.50;11.50;;;;;17.50;82.69;101638.97;5142450;27;45350;-72
2021/08/30 01:32:57;;;;;;;;;15.25;12.25;;;;;17.49;80.71;101632.84;5142399;27;46269;-71
2021/08/30 01:35:25;;;;;;;;;14.25;12.25;;;;;17.52;81.37;101631.88;5142178;27;45508;-72
2021/08/30 01:37:55;;;;;;;;;13.25;11.75;;;;;17.51;81.94;101628.38;5142578;27;45483;-72
2021/08/30 01:40:23;;;;;;;;;12.00;12.00;;;;;17.49;82.95;101629.38;5142152;27;45171;-73
2021/08/30 01:42:52;;;;;;;;;12.00;12.00;;;;;17.51;82.60;101635.41;5123252;27;46381;-73
2021/08/30 01:45:23;;;;;;;;;17.75;11.50;;;;;17.50;82.13;101629.31;5141696;27;45457;-73
2021/08/30 01:47:50;;;;;;;;;17.00;10.50;;;;;17.53;82.16;101626.53;5142591;27;45440;-75
2021/08/30 01:50:20;;;;;;;;;16.00;11.00;;;;;17.57;83.16;101629.91;5123486;27;45658;-74
2021/08/30 01:52:46;;;;;;;;;16.25;13.50;;;;;17.50;82.75;101626.69;5142106;27;46455;-75
2021/08/30 02:00:43;;;;;;;;;16.75;13.00;;;;;17.49;83.13;101622.34;5139927;27;45237;-69
2021/08/30 02:03:16;;;;;;;;;13.75;12.75;;;;;17.48;84.95;101625.03;5141644;27;46318;-69
2021/08/30 02:06:04;;;;;;;;;14.50;12.25;;;;;17.47;84.11;101623.34;5139371;27;45310;-70
2021/08/30 02:08:32;;;;;;;;;15.00;12.25;;;;;17.46;84.88;101626.88;5139298;27;45492;-72
2021/08/30 02:11:06;;;;;;;;;12.25;8.50;;;;;17.46;84.29;101629.50;5141512;27;45459;-74
2021/08/30 02:13:32;;;;;;;;;16.00;11.00;;;;;17.37;86.55;101628.09;5121960;27;47128;-74
2021/08/30 02:16:01;;;;;;;;;10.50;7.50;;;;;17.39;84.80;101630.66;5122924;27;45805;-74
2021/08/30 02:18:38;;;;;;;;;17.00;11.50;;;;;17.41;85.09;101627.03;5142486;27;45288;-73
2021/08/30 02:21:22;;;;;;;;;13.50;12.00;;;;;17.42;86.60;101634.03;5129707;27;45255;-72
2021/08/30 02:23:59;;;;;;;;;12.00;11.00;;;;;17.41;85.65;101629.69;5142128;27;45759;-72
2021/08/30 02:26:31;;;;;;;;;13.75;10.50;;;;;17.38;87.24;101628.94;5141665;27;45682;-72
2021/08/30 02:29:01;;;;;;;;;18.75;11.25;;;;;17.37;85.49;101619.38;5141168;27;45475;-72
2021/08/30 02:31:28;;;;;;;;;12.00;12.00;;;;;17.39;86.97;101625.41;5142504;27;45345;-72
2021/08/30 02:33:57;;;;;;;;;15.75;13.00;;;;;17.36;86.57;101615.88;5141880;27;45378;-73
2021/08/30 02:36:24;;;;;;;;;12.50;11.75;;;;;17.33;87.17;101622.13;5141748;27;45485;-73
2021/08/30 02:38:52;;;;;;;;;12.75;12.75;;;;;17.33;87.36;101622.13;5142096;27;45245;-73
2021/08/30 02:41:19;;;;;;;;;13.50;11.25;;;;;17.34;86.55;101617.72;5142093;27;45420;-73
2021/08/30 02:43:46;;;;;;;;;15.25;12.25;;;;;17.34;88.49;101615.09;5122611;27;48387;-73
2021/08/30 02:46:12;;;;;;;;;16.25;11.25;;;;;17.39;85.95;101621.00;5142021;27;45171;-72
2021/08/30 02:48:40;;;;;;;;;12.00;11.25;;;;;17.41;86.69;101616.53;5141945;27;45469;-73
2021/08/30 02:51:05;;;;;;;;;15.25;14.00;;;;;17.45;85.99;101610.25;5123145;27;45798;-72
2021/08/30 02:53:33;;;;;;;;;12.50;11.75;;;;;17.47;86.88;101602.31;5141587;27;45428;-72
2021/08/30 02:56:02;;;;;;;;;8.25;4.50;;;;;17.49;86.31;101616.22;5141577;27;45243;-72
2021/08/30 02:58:29;;;;;;;;;14.50;14.25;;;;;17.48;86.52;101620.63;5141672;27;45295;-73
2021/08/30 03:00:56;;;;;;;;;10.00;9.00;;;;;17.52;86.00;101616.09;5141732;27;45156;-72
2021/08/30 03:03:21;;;;;;;;;11.50;11.00;;;;;17.55;87.48;101631.72;5109910;27;48110;-74
2021/08/30 03:05:48;;;;;;;;;11.50;8.75;;;;;17.55;85.58;101616.81;5141432;27;45330;-74
2021/08/30 03:08:17;;;;;;;;;17.75;13.50;;;;;17.56;86.46;101613.25;5141684;27;45421;-73
2021/08/30 03:10:45;;;;;;;;;13.50;11.00;;;;;17.58;86.69;101616.69;5141340;27;45490;-73
2021/08/30 03:13:11;;;;;;;;;20.00;14.25;;;;;17.54;87.20;101623.00;5122802;27;47019;-69
2021/08/30 03:15:36;;;;;;;;;11.50;10.50;;;;;17.52;87.51;101614.31;5141449;27;45289;-69
2021/08/30 03:18:07;;;;;;;;;18.00;14.25;;;;;17.49;88.92;101618.88;5141683;27;45356;-72
2021/08/30 03:20:33;;;;;;;;;14.50;12.00;;;;;17.50;86.96;101613.53;5141422;27;45264;-72
2021/08/30 03:23:01;;;;;;;;;16.00;14.00;;;;;17.54;86.39;101612.47;5122790;27;47314;-73
2021/08/30 03:25:34;;;;;;;;;14.25;12.00;;;;;17.54;87.87;101615.09;5140971;27;45901;-72
2021/08/30 03:28:03;;;;;;;;;13.00;13.00;;;;;17.55;86.50;101611.56;5140656;27;45519;-67
2021/08/30 03:30:29;;;;;;;;;16.50;14.75;;;;;17.54;89.02;101604.59;5141161;27;45402;-69
2021/08/30 03:32:56;;;;;;;;;19.25;14.00;;;;;17.50;86.75;101610.91;5141772;27;46166;-70
2021/08/30 03:35:22;;;;;;;;;14.25;14.00;;;;;17.55;88.03;101611.56;5140989;27;45168;-71
2021/08/30 03:37:48;;;;;;;;;17.50;15.00;;;;;17.56;88.09;101605.38;5142034;27;45288;-69
2021/08/30 03:40:15;;;;;;;;;20.25;16.00;;;;;17.59;87.12;101604.41;5144536;27;45614;-66
2021/08/30 03:42:41;;;;;;;;;19.50;16.00;;;;;17.60;86.81;101603.47;5126140;27;47177;-66
2021/08/30 03:45:09;;;;;;;;;26.00;15.50;;;;;17.60;87.79;101604.31;5144416;27;45609;-66
2021/08/30 03:47:36;;;;;;;;;17.50;14.50;;;;;17.62;88.77;101597.25;5145141;27;45250;-66
2021/08/30 03:50:03;;;;;;;;;14.50;12.50;;;;;17.64;88.15;101602.44;5143855;27;45180;-65
2021/08/30 03:52:30;;;;;;;;;16.75;14.75;;;;;17.68;87.71;101606.69;5143964;27;46099;-67
2021/08/30 03:54:56;;;;;;;;;16.25;15.75;;;;;17.73;86.98;101607.31;5141498;27;45818;-67
2021/08/30 03:57:23;;;;;;;;;19.50;14.75;;;;;17.75;86.59;101607.25;5143816;27;45294;-64
2021/08/30 03:59:56;;;;;;;;;14.25;14.25;;;;;17.75;87.82;101602.00;5143771;27;45435;-66
2021/08/30 04:02:24;;;;;;;;;18.00;13.25;;;;;17.77;87.27;101608.91;5142341;27;45377;-67
2021/08/30 04:04:51;;;;;;;;;20.50;17.75;;;;;17.81;88.53;101606.97;5143583;27;45742;-68
2021/08/30 04:07:21;;;;;;;;;21.25;16.25;;;;;17.82;87.11;101600.78;5143749;27;46291;-68
2021/08/30 04:09:50;;;;;;;;;18.00;13.50;;;;;17.82;86.69;101601.69;5143677;27;45379;-68
2021/08/30 04:12:15;;;;;;;;;18.75;16.75;;;;;17.83;86.68;101598.13;5140414;27;46538;-67
2021/08/30 04:14:41;;;;;;;;;15.50;14.00;;;;;17.88;87.18;101596.13;5143442;27;45417;-67
2021/08/30 04:17:06;;;;;;;;;23.50;15.00;;;;;17.89;87.52;101599.63;5143850;27;45263;-66
2021/08/30 04:19:31;;;;;;;;;15.75;15.00;;;;;17.90;86.63;101602.19;5144154;27;45349;-68
2021/08/30 04:21:57;;;;;;;;;16.00;14.75;;;;;17.94;86.56;101598.50;5143957;27;46409;-69
2021/08/30 04:24:24;;;;;;;;;15.75;15.75;;;;;17.97;86.91;101600.13;5144207;27;45240;-69
2021/08/30 04:26:50;;;;;;;;;22.75;19.25;;;;;17.98;86.15;101600.97;5142225;27;45418;-68
2021/08/30 04:29:15;;;;;;;;;21.25;15.50;;;;;18.01;87.23;101603.47;5142845;27;45556;-68
2021/08/30 04:31:40;;;;;;;;;20.25;19.00;;;;;18.02;85.86;101605.19;5121464;27;47329;-70
2021/08/30 04:34:06;;;;;;;;;21.25;20.00;;;;;17.99;86.34;101603.53;5141529;27;45325;-68
2021/08/30 04:36:31;;;;;;;;;24.25;18.00;;;;;18.03;86.80;101607.78;5143344;27;45298;-67
2021/08/30 04:38:56;;;;;;;;;19.75;19.50;;;;;18.02;88.25;101619.22;5143453;27;45401;-67
2021/08/30 04:41:25;;;;;;;;;25.00;21.25;;;;;18.01;86.62;101617.47;5143586;27;45381;-67
2021/08/30 04:43:51;;;;;;;;;20.50;18.25;;;;;17.98;86.90;101611.50;5142755;27;45295;-67
2021/08/30 04:46:20;;;;;;;;;23.50;20.50;;;;;17.97;86.62;101613.28;5131682;27;45231;-70
2021/08/30 04:48:46;;;;;;;;;20.25;19.00;;;;;18.00;87.23;101610.50;5143355;27;45307;-67
2021/08/30 04:51:11;;;;;;;;;22.25;19.25;;;;;17.97;88.74;101609.78;5123579;27;47846;-66
2021/08/30 04:53:36;;;;;;;;;26.50;22.25;;;;;17.98;86.89;101614.97;5143329;27;45404;-67
2021/08/30 04:56:02;;;;;;;;;26.75;20.00;;;;;17.99;86.69;101615.84;5143059;27;45316;-67
2021/08/30 04:58:27;;;;;;;;;23.75;21.00;;;;;18.02;88.02;101620.97;5141122;27;45526;-67
2021/08/30 05:00:53;;;;;;;;;23.00;22.00;;;;;17.98;88.07;101622.88;5119514;27;47146;-67
2021/08/30 05:03:18;;;;;;;;;25.00;21.75;;;;;18.03;87.17;101631.44;5143194;27;45413;-68
2021/08/30 05:05:44;;;;;;;;;24.75;21.75;;;;;18.03;88.16;101625.31;5141865;27;45309;-68
2021/08/30 05:08:09;;;;;;;;;22.50;19.00;;;;;17.99;88.08;101624.56;5142104;27;45429;-68
2021/08/30 05:10:36;;;;;;;;;26.00;23.25;;;;;17.97;87.59;101620.31;5123722;27;46812;-68
2021/08/30 05:13:01;;;;;;;;;25.50;22.25;;;;;17.93;88.50;101623.09;5120729;27;45652;-68
2021/08/30 05:15:32;;;;;;;;;24.50;23.25;;;;;17.93;88.52;101630.97;5135133;27;45760;-69
2021/08/30 05:17:57;;;;;;;;;30.25;23.25;;;;;17.95;87.65;101625.66;5126628;27;45872;-68
2021/08/30 05:20:23;;;;;;;;;30.00;25.50;;;;;18.00;87.07;101625.44;5121443;27;47051;-68
2021/08/30 05:22:48;;;;;;;;;34.00;25.75;;;;;17.99;87.26;101624.56;5140752;27;45391;-68
2021/08/30 05:25:14;;;;;;;;;28.00;23.75;;;;;18.03;88.29;101636.69;5140330;27;45470;-69
2021/08/30 05:27:44;;;;;;;;;29.25;22.00;;;;;18.02;89.01;101634.09;5139479;27;45589;-67
2021/08/30 05:30:10;;;;;;;;;28.00;21.75;;;;;17.98;88.13;101628.13;5139977;27;45687;-67
2021/08/30 05:32:35;;;;;;;;;32.00;28.50;;;;;17.98;88.40;101622.03;5142672;27;46511;-67
2021/08/30 05:35:01;;;;;;;;;32.75;24.00;;;;;18.00;87.62;101630.69;5142427;27;45373;-68
2021/08/30 05:37:26;;;;;;;;;29.50;26.25;;;;;18.01;88.49;101633.25;5142372;27;45313;-68
2021/08/30 05:39:51;;;;;;;;;33.50;26.75;;;;;17.99;88.20;101632.47;5142363;27;46341;-68
2021/08/30 05:42:17;;;;;;;;;30.00;28.25;;;;;18.04;87.57;101640.19;5142050;27;45343;-68
2021/08/30 05:44:42;;;;;;;;;31.75;28.25;;;;;18.02;88.86;101645.50;5123749;27;45403;-68
2021/08/30 05:47:08;;;;;;;;;34.50;28.25;;;;;18.04;89.00;101640.19;5124115;27;45593;-67
2021/08/30 05:49:33;;;;;;;;;30.00;28.25;;;;;17.99;88.73;101635.09;5142496;27;46219;-68
2021/08/30 05:51:59;;;;;;;;;35.75;31.50;;;;;18.03;87.81;101634.06;5142519;27;45699;-68
2021/08/30 05:54:27;;;;;;;;;31.25;26.50;;;;;18.03;89.02;101643.75;5142482;27;45547;-68
2021/08/30 05:56:53;;;;;;;;;33.25;28.00;;;;;18.07;88.10;101640.03;5119736;27;45550;-67
2021/08/30 05:59:18;;;;;;;;;35.00;29.50;;;;;18.07;87.67;101643.53;5135706;27;45412;-67
2021/08/30 06:01:43;;;;;;;;;33.00;29.50;;;;;18.08;88.02;101641.75;5141458;27;45267;-67
2021/08/30 06:04:08;;;;;;;;;35.50;29.75;;;;;18.07;88.69;101640.91;5142337;27;45254;-66
2021/08/30 06:06:34;;;;;;;;;38.00;31.00;;;;;18.11;87.44;101641.59;5142014;27;45167;-67
2021/08/30 06:09:02;;;;;;;;;36.00;30.00;;;;;18.17;88.40;101641.31;5122649;27;46616;-67
2021/08/30 06:11:28;;;;;;;;;35.00;30.75;;;;;18.16;88.37;101658.88;5141922;27;45711;-66
2021/08/30 06:13:53;;;;;;;;;36.25;30.50;;;;;18.16;88.38;101651.00;5141535;27;45324;-67
2021/08/30 06:16:19;;;;;;;;;40.00;32.00;;;;;18.17;88.02;101647.44;5141920;27;45267;-67
2021/08/30 06:18:47;;;;;;;;;39.50;32.25;;;;;18.22;87.31;101647.25;5120509;27;47535;-69
2021/08/30 06:21:13;;;;;;;;;30.00;25.00;;;;;18.26;87.54;101647.97;5142140;27;45175;-68
2021/08/30 06:23:38;;;;;;;;;35.25;28.75;;;;;18.31;88.08;101656.50;5141774;27;45513;-69
2021/08/30 06:26:03;;;;;;;;;37.25;32.50;;;;;18.29;87.66;101642.56;5123325;27;45187;-69
2021/08/30 06:28:29;;;;;;;;;33.00;29.25;;;;;18.36;86.86;101649.25;5140934;27;45406;-69
2021/08/30 06:30:57;;;;;;;;;42.25;33.75;;;;;18.40;87.07;101658.72;5118570;27;45238;-68
2021/08/30 06:33:23;;;;;;;;;48.00;35.50;;;;;18.42;87.10;101660.38;5134987;27;45421;-68
2021/08/30 06:35:48;;;;;;;;;44.50;33.25;;;;;18.46;86.05;101661.94;5140370;27;45313;-68
2021/08/30 06:38:17;;;;;;;;;41.25;32.25;;;;;18.48;86.23;101664.50;5141403;27;45401;-67
2021/08/30 06:40:43;;;;;;;;;33.50;30.00;;;;;18.48;85.92;101659.22;5136020;27;45684;-68
2021/08/30 06:43:08;;;;;;;;;43.25;35.00;;;;;18.50;85.87;101665.28;5122559;27;45294;-67
2021/08/30 06:45:33;;;;;;;;;35.25;31.25;;;;;18.50;85.96;101660.88;5141940;27;45373;-67
2021/08/30 06:48:00;;;;;;;;;34.25;29.75;;;;;18.53;85.75;101660.72;5141327;27;45187;-65
2021/08/30 06:50:26;;;;;;;;;43.75;31.50;;;;;18.58;85.70;101649.13;5141825;27;45803;-67
2021/08/30 06:52:53;;;;;;;;;36.50;29.50;;;;;18.62;85.52;101650.69;5141760;27;45290;-67
2021/08/30 06:55:18;;;;;;;;;32.50;30.00;;;;;18.66;85.08;101654.94;5141585;27;45326;-67
2021/08/30 06:57:47;;;;;;;;;32.00;24.75;;;;;18.72;84.82;101665.16;5140984;27;46159;-67
2021/08/30 07:00:13;;;;;;;;;33.50;26.00;;;;;18.74;84.86;101665.94;5141465;27;45730;-67
2021/08/30 07:02:39;;;;;;;;;30.25;30.00;;;;;18.73;84.47;101659.81;5141394;27;45443;-68
2021/08/30 07:05:07;;;;;;;;;46.75;34.25;;;;;18.80;84.68;101661.25;5141695;27;45221;-73
2021/08/30 07:07:32;;;;;;;;;37.00;25.75;;;;;18.84;84.82;101659.34;5131903;27;46295;-66
2021/08/30 07:09:58;;;;;;;;;33.75;27.50;;;;;18.88;84.12;101660.03;5139924;27;45323;-71
2021/08/30 07:12:24;;;;;;;;;41.00;30.75;;;;;18.94;84.06;101671.13;5123418;27;45369;-67
2021/08/30 07:14:53;;;;;;;;;44.25;30.50;;;;;18.94;83.89;101671.13;5145042;27;45507;-65
2021/08/30 07:17:19;;;;;;;;;35.00;29.75;;;;;18.95;83.53;101675.47;5144524;27;46448;-64
2021/08/30 07:19:47;;;;;;;;;30.25;29.00;;;;;18.96;83.16;101669.28;5145151;27;45229;-67
2021/08/30 07:22:13;;;;;;;;;31.50;26.00;;;;;18.97;82.85;101685.94;5144960;27;45537;-67
2021/08/30 07:24:39;;;;;;;;;33.50;30.00;;;;;18.95;83.36;101675.47;5126137;27;45419;-68
2021/08/30 07:27:05;;;;;;;;;34.00;29.25;;;;;18.98;83.00;101682.38;5143401;27;45436;-69
2021/08/30 07:29:31;;;;;;;;;32.00;27.50;;;;;19.00;83.04;101691.06;5144703;27;45658;-68
2021/08/30 07:31:56;;;;;;;;;31.25;29.25;;;;;19.00;82.59;101681.38;5144548;27;45175;-69
2021/08/30 07:34:24;;;;;;;;;31.50;27.50;;;;;19.11;82.81;101684.34;5144559;27;45448;-72
2021/08/30 07:36:49;;;;;;;;;31.00;24.25;;;;;19.21;82.12;101689.16;5144337;27;46484;-74
2021/08/30 07:39:18;;;;;;;;;18.50;17.25;;;;;19.28;82.00;101680.91;5144740;27;45279;-73
2021/08/30 07:41:43;;;;;;;;;29.25;26.00;;;;;19.35;82.11;101690.22;5138964;27;45498;-73
2021/08/30 07:44:08;;;;;;;;;34.00;26.25;;;;;19.47;81.21;101691.41;5144201;27;45332;-68
2021/08/30 07:46:34;;;;;;;;;30.00;26.50;;;;;19.55;80.95;101693.69;5144137;27;46635;-70
2021/08/30 07:49:02;;;;;;;;;26.25;24.00;;;;;19.61;80.86;101694.22;5124628;27;45432;-69
2021/08/30 07:51:27;;;;;;;;;28.25;23.50;;;;;19.66;80.21;101702.78;5144364;27;45167;-71
2021/08/30 07:53:53;;;;;;;;;24.00;21.00;;;;;19.72;78.05;101718.28;5125679;27;45559;-69
2021/08/30 07:56:18;;;;;;;;;28.25;24.00;;;;;19.80;79.33;101701.22;5143245;27;46122;-69
2021/08/30 07:58:44;;;;;;;;;21.00;21.00;;;;;19.86;78.13;101706.19;5143874;27;45299;-69
2021/08/30 08:01:12;;;;;;;;;23.75;20.00;;;;;19.92;77.17;101703.25;5124600;27;45314;-68
2021/08/30 08:03:37;;;;;;;;;25.00;20.75;;;;;19.92;76.19;101709.38;5143977;27;45489;-68
2021/08/30 08:06:02;;;;;;;;;21.25;18.00;;;;;19.92;77.50;101703.25;5144020;27;46524;-69
2021/08/30 08:08:28;;;;;;;;;25.50;22.50;;;;;19.99;77.00;101709.91;5143830;27;45423;-68
2021/08/30 08:10:53;;;;;;;;;22.50;19.00;;;;;20.04;75.15;101718.47;5124806;27;45383;-67
2021/08/30 08:13:18;;;;;;;;;25.75;20.25;;;;;20.09;76.35;101705.88;5143578;27;45346;-68
2021/08/30 08:15:45;;;;;;;;;16.75;16.00;;;;;20.08;75.61;101719.16;5143544;27;45207;-68
2021/08/30 08:18:11;;;;;;;;;26.00;24.50;;;;;20.05;75.80;101712.25;5125024;27;45523;-67
2021/08/30 08:20:36;;;;;;;;;25.75;23.00;;;;;20.11;75.77;101716.34;5143835;27;45237;-68
2021/08/30 08:23:03;;;;;;;;;26.25;22.00;;;;;20.21;75.57;101726.31;5143693;27;45185;-67
2021/08/30 08:25:29;;;;;;;;;23.25;19.75;;;;;20.30;75.46;101717.94;5142768;27;45284;-67
2021/08/30 08:27:55;;;;;;;;;27.75;24.00;;;;;20.36;73.91;101725.53;5142577;27;45385;-68
2021/08/30 08:30:20;;;;;;;;;26.25;21.00;;;;;20.39;74.02;101721.03;5129844;27;45245;-70
2021/08/30 08:32:46;;;;;;;;;29.25;24.50;;;;;20.39;74.23;101723.66;5143649;27;45368;-71
2021/08/30 08:35:12;;;;;;;;;22.25;19.75;;;;;20.42;73.68;101719.09;5142995;27;46432;-69
2021/08/30 08:37:38;;;;;;;;;26.75;21.50;;;;;20.44;72.27;101725.19;5143365;27;45411;-69
2021/08/30 08:40:06;;;;;;;;;29.00;21.50;;;;;20.54;73.58;101729.03;5143092;27;45363;-69
2021/08/30 08:42:35;;;;;;;;;29.50;24.50;;;;;20.68;73.72;101725.66;5142329;27;45406;-69
2021/08/30 08:45:04;;;;;;;;;23.25;19.50;;;;;20.79;73.47;101723.25;5128427;27;47290;-66
2021/08/30 08:47:30;;;;;;;;;16.75;15.00;;;;;20.91;71.78;101725.25;5123183;27;45255;-67
2021/08/30 08:49:56;;;;;;;;;18.25;15.75;;;;;20.96;68.84;101731.13;5122825;27;45694;-68
2021/08/30 08:52:22;;;;;;;;;22.75;20.50;;;;;20.96;70.06;101724.97;5123267;27;45536;-73
2021/08/30 08:54:49;;;;;;;;;16.50;14.75;;;;;20.96;70.19;101735.56;5143155;27;45305;-73
2021/08/30 08:57:14;;;;;;;;;22.00;19.75;;;;;21.05;70.30;101727.13;5142702;27;45384;-73
2021/08/30 08:59:41;;;;;;;;;14.25;14.00;;;;;21.19;70.34;101721.06;5142863;27;45419;-72
2021/08/30 09:02:07;;;;;;;;;14.25;13.50;;;;;21.23;68.52;101735.84;5124377;27;45278;-72
2021/08/30 09:04:34;;;;;;;;;23.50;19.00;;;;;21.22;69.35;101713.81;5142781;27;45482;-73
2021/08/30 09:07:11;;;;;;;;;18.50;15.75;;;;;21.32;68.24;101726.53;5142933;27;45659;-74
2021/08/30 09:09:39;;;;;;;;;24.75;20.00;;;;;21.32;67.70;101729.19;5141680;27;45291;-70
2021/08/30 09:12:06;;;;;;;;;24.25;19.25;;;;;21.34;67.93;101728.16;5142901;27;45319;-71
2021/08/30 09:14:31;;;;;;;;;20.75;17.75;;;;;21.36;68.08;101744.78;5123999;27;47238;-71
2021/08/30 09:17:09;;;;;;;;;14.00;11.25;;;;;21.42;68.49;101728.56;5143482;27;45413;-72
2021/08/30 09:19:36;;;;;;;;;25.00;20.50;;;;;21.48;68.51;101733.53;5131306;27;45313;-69
2021/08/30 09:22:03;;;;;;;;;18.75;15.00;;;;;21.49;66.85;101748.44;5135935;27;45483;-66
2021/08/30 09:24:29;;;;;;;;;22.25;21.75;;;;;21.51;66.89;101741.28;5143107;27;45281;-70
2021/08/30 09:27:03;;;;;;;;;37.25;26.75;;;;;21.53;66.81;101747.34;5142309;27;45232;-69
2021/08/30 09:29:33;;;;;;;;;14.50;14.50;;;;;21.58;66.95;101740.91;5111185;27;45296;-66
2021/08/30 09:32:02;;;;;;;;;20.00;18.50;;;;;21.50;65.33;101750.16;5141505;27;46413;-73
2021/08/30 09:34:29;;;;;;;;;20.00;20.00;;;;;21.42;65.56;101741.78;5142254;27;46441;-73
2021/08/30 09:36:55;;;;;;;;;17.75;15.75;;;;;21.47;65.96;101752.13;5141615;27;45353;-74
2021/08/30 09:39:20;;;;;;;;;24.25;18.00;;;;;21.49;65.39;101752.88;5143107;27;45264;-72
2021/08/30 09:41:45;;;;;;;;;17.50;16.50;;;;;21.47;64.62;101752.13;5123555;27;45468;-67
2021/08/30 09:44:11;;;;;;;;;18.50;15.50;;;;;21.42;64.99;101744.44;5141464;27;46950;-65
2021/08/30 09:46:36;;;;;;;;;16.50;16.50;;;;;21.42;64.32;101751.50;5142308;27;45324;-66
2021/08/30 09:49:06;;;;;;;;;25.50;23.25;;;;;21.45;65.23;101748.72;5141607;27;45472;-65
2021/08/30 09:51:36;;;;;;;;;19.50;17.25;;;;;21.49;64.33;101751.09;5123407;27;45463;-63
2021/08/30 09:54:02;;;;;;;;;20.00;18.00;;;;;21.49;64.84;101756.38;5142460;27;46129;-65
2021/08/30 09:56:29;;;;;;;;;19.00;15.25;;;;;21.43;63.86;101750.59;5141279;27;45340;-62
2021/08/30 09:59:03;;;;;;;;;18.25;12.25;;;;;21.41;63.04;101755.94;5136559;27;45313;-67
2021/08/30 10:01:29;;;;;;;;;19.50;17.75;;;;;21.44;64.29;101747.88;5142312;27;45646;-66
2021/08/30 10:03:55;;;;;;;;;15.00;13.50;;;;;21.60;63.46;101744.31;5119878;27;46849;-61
2021/08/30 10:06:20;;;;;;;;;14.50;14.50;;;;;21.75;63.27;101748.75;5140363;27;45331;-62
2021/08/30 10:08:46;;;;;;;;;15.50;14.50;;;;;21.93;64.19;101739.72;5142279;27;45215;-63
2021/08/30 10:11:11;;;;;;;;;13.00;12.00;;;;;22.07;62.56;101742.44;5141145;27;45209;-63
2021/08/30 10:13:40;;;;;;;;;17.75;15.75;;;;;22.13;62.73;101746.50;5119037;27;46254;-69
2021/08/30 10:16:05;;;;;;;;;16.75;14.25;;;;;22.09;61.14;101745.84;5121661;27;45616;-64
2021/08/30 10:18:31;;;;;;;;;19.00;16.25;;;;;22.11;61.95;101748.41;5141306;27;45236;-63
2021/08/30 10:20:56;;;;;;;;;13.00;11.00;;;;;22.14;62.12;101745.56;5140748;27;45426;-63
2021/08/30 10:23:50;;;;;;;;;16.75;13.00;;;;;22.21;61.67;101740.75;5140391;27;45523;-66
2021/08/30 10:26:16;;;;;;;;;18.00;15.00;;;;;22.32;61.41;101746.25;5140103;27;45255;-63
2021/08/30 10:28:46;;;;;;;;;20.50;17.25;;;;;22.32;59.83;101728.56;5138944;27;45439;-63
2021/08/30 10:31:37;;;;;;;;;15.25;14.25;;;;;22.33;60.06;101735.56;5140363;27;45726;-63
2021/08/30 10:34:03;;;;;;;;;14.00;13.25;;;;;22.28;60.54;101740.31;5118629;27;46848;-63
2021/08/30 10:36:29;;;;;;;;;13.25;12.50;;;;;22.15;59.96;101734.03;5139802;27;45381;-63
2021/08/30 10:39:06;;;;;;;;;17.25;13.25;;;;;22.06;61.27;101731.94;5139590;27;45399;-63
2021/08/30 10:41:40;;;;;;;;;12.50;10.00;;;;;22.02;60.48;101733.88;5139516;27;45444;-63
2021/08/30 10:44:12;;;;;;;;;16.50;13.00;;;;;21.91;59.75;101746.06;5139470;27;46674;-64
2021/08/30 10:46:50;;;;;;;;;16.50;14.25;;;;;21.89;61.21;101742.66;5122049;27;45384;-66
2021/08/30 10:49:29;;;;;;;;;14.75;14.00;;;;;21.88;60.01;101741.78;5141439;27;45355;-64
2021/08/30 10:52:05;;;;;;;;;18.75;16.50;;;;;21.89;61.10;101738.19;5135700;27;45305;-63
2021/08/30 10:54:30;;;;;;;;;19.75;18.50;;;;;21.93;60.44;101734.44;5141338;27;46046;-63
2021/08/30 10:57:01;;;;;;;;;19.00;17.25;;;;;22.12;60.91;101734.22;5141058;27;45208;-64
2021/08/30 10:59:30;;;;;;;;;20.00;16.75;;;;;22.29;60.07;101736.69;5127330;27;45376;-64
2021/08/30 11:02:00;;;;;;;;;14.25;14.00;;;;;22.49;60.51;101737.28;5120563;27;45535;-64
2021/08/30 11:04:33;;;;;;;;;16.25;14.75;;;;;22.72;59.51;101737.56;5101763;27;46952;-64
2021/08/30 11:07:00;;;;;;;;;14.50;11.00;;;;;22.85;57.24;101740.34;5097959;27;45481;-65
2021/08/30 11:09:27;;;;;;;;;13.00;13.00;;;;;23.04;57.67;101740.03;5099231;27;45177;-64
2021/08/30 11:11:53;;;;;;;;;17.00;14.25;;;;;23.16;56.84;101749.81;5110192;27;45735;-67
2021/08/30 11:14:20;;;;;;;;;14.00;13.00;;;;;23.24;56.64;101741.38;5099352;27;45432;-67
2021/08/30 11:16:54;;;;;;;;;11.00;11.00;;;;;23.24;55.94;101744.88;5099612;27;45215;-67
2021/08/30 11:19:20;;;;;;;;;13.00;12.00;;;;;23.17;55.02;101726.81;5099755;27;45242;-69